Big Glory — H9IF — position and weather

sailwx.info

Track history (hours):
 
Tides and Currents Weather Stations Pressure Air Temp Water Temp Dewpoint Dewpoint Depression Visibility Wind Speed Wind Dir Waves Ship Positions

Big Glory

Last reported at 2014-Apr-13 01:23 UTC. Time now 2014-Jul-23 01:14 UTC.
Position N 35°53' E 140°57'.
Warning: this ship's position is months out of date.

Length 190 m; draft 6.5 m.

Type: Cargo ship. MMSI: 354285000.

Date/timePositionNaut miles runAvg speedWind from/ knotsBaromVisibWave heightAir tempDewpointWater temp
2014-Apr-13 01:23N 35°53' E 140°57'1012.2
2014-Apr-13 00:33N 35°60' E 140°48'6 5.7
2014-Apr-12 23:26N 35°55' E 140°42'0 0.0
2014-Apr-12 22:23N 35°55' E 140°42'0 0.0
2014-Apr-12 21:29N 35°55' E 140°42'0 0.0
2014-Apr-12 20:29N 35°55' E 140°42'0 0.0
2014-Apr-12 19:29N 35°55' E 140°42'0 0.0
2014-Apr-12 18:32N 35°55' E 140°42'0 0.0
2014-Apr-12 17:26N 35°55' E 140°42'0 0.0
2014-Apr-12 16:32N 35°55' E 140°42'0 0.0
2014-Apr-12 15:29N 35°55' E 140°42'0 0.0
2014-Apr-12 14:23N 35°55' E 140°42'0 0.0
2014-Apr-12 13:29N 35°55' E 140°42'0 0.0
2014-Apr-12 12:32N 35°55' E 140°42'0 0.0
2014-Apr-12 11:26N 35°55' E 140°42'0 0.0
2014-Apr-12 10:32N 35°55' E 140°42'0 0.0
2014-Apr-12 09:29N 35°55' E 140°42'0 0.0
2014-Apr-12 08:20N 35°55' E 140°42'0 0.0
2014-Apr-12 07:17N 35°55' E 140°42'0 0.0
2014-Apr-12 06:26N 35°55' E 140°42'0 0.0
2014-Apr-12 05:29N 35°55' E 140°42'0 0.0
2014-Apr-12 04:26N 35°55' E 140°42'0 0.0
2014-Apr-12 03:32N 35°55' E 140°42'0 0.0
2014-Apr-12 02:23N 35°55' E 140°42'0 0.0
2014-Apr-12 01:32N 35°55' E 140°42'0 0.0
2014-Apr-12 00:32N 35°55' E 140°42'0 0.0
2014-Apr-11 23:20N 35°55' E 140°42'0 0.0
2014-Apr-11 22:29N 35°55' E 140°42'0 0.0
2014-Apr-11 21:26N 35°55' E 140°42'0 0.0
2014-Apr-11 20:29N 35°55' E 140°42'0 0.0
2014-Apr-11 19:32N 35°55' E 140°42'0 0.0
2014-Apr-11 18:29N 35°55' E 140°42'0 0.0
2014-Apr-11 17:20N 35°55' E 140°42'0 0.0
2014-Apr-11 16:29N 35°55' E 140°42'0 0.0
2014-Apr-11 15:32N 35°55' E 140°42'0 0.0
2014-Apr-11 14:29N 35°55' E 140°42'0 0.0
2014-Apr-11 13:32N 35°55' E 140°42'0 0.0
2014-Apr-11 12:32N 35°55' E 140°42'0 0.0
2014-Apr-11 11:32N 35°55' E 140°42'0 0.0
2014-Apr-11 10:23N 35°55' E 140°42'0 0.0
2014-Apr-11 09:32N 35°55' E 140°42'0 0.0
2014-Apr-11 08:29N 35°55' E 140°42'0 0.0
2014-Apr-11 07:32N 35°55' E 140°42'1 0.1
2014-Apr-11 01:33N 35°56' E 140°42'5 4.7
2014-Apr-11 00:33N 35°59' E 140°46'2 1.2
2014-Apr-10 22:27N 35°58' E 140°49'0 0.0
2014-Apr-10 21:33N 35°58' E 140°49'0 0.0
2014-Apr-10 20:24N 35°58' E 140°49'0 0.1
2014-Apr-10 19:33N 35°58' E 140°49'0 0.1
2014-Apr-10 18:33N 35°59' E 140°49'39 7.6
2014-Apr-10 13:23N 35°19' E 140°46'1211.9
2014-Apr-10 12:23N 35°10' E 140°38'2310.9
2014-Apr-10 10:15N 34°54' E 140°17'912.5
2014-Apr-10 09:32N 34°51' E 140°07'1612.8
2014-Apr-10 08:16N 34°45' E 139°48'912.9
2014-Apr-10 07:33N 34°42' E 139°38'8212.9
2014-Apr-10 01:14N 34°09' E 138°07'36311.1
2014-Apr-08 16:30N 34°02' E 130°49'5311.8
2014-Apr-08 12:03N 34°03' E 129°45'  
Track history (hours):
 
Tides and Currents Weather Stations Pressure Air Temp Water Temp Dewpoint Dewpoint Depression Visibility Wind Speed Wind Dir Waves Ship Positions

Big Glory

Last reported at 2014-Apr-13 01:23 UTC. Time now 2014-Jul-23 01:14 UTC.
Position N 35°53' E 140°57'.
Warning: this ship's position is months out of date.

Length 190 m; draft 6.5 m.

Type: Cargo ship. MMSI: 354285000.

Date/timePositionNaut miles runAvg speedWind from/ knotsBaromVisibWave heightAir tempDewpointWater temp
2014-Apr-13 01:23N 35°53' E 140°57'1012.2
2014-Apr-13 00:33N 35°60' E 140°48'6 5.7
2014-Apr-12 23:26N 35°55' E 140°42'0 0.0
2014-Apr-12 22:23N 35°55' E 140°42'0 0.0
2014-Apr-12 21:29N 35°55' E 140°42'0 0.0
2014-Apr-12 20:29N 35°55' E 140°42'0 0.0
2014-Apr-12 19:29N 35°55' E 140°42'0 0.0
2014-Apr-12 18:32N 35°55' E 140°42'0 0.0
2014-Apr-12 17:26N 35°55' E 140°42'0 0.0
2014-Apr-12 16:32N 35°55' E 140°42'0 0.0
2014-Apr-12 15:29N 35°55' E 140°42'0 0.0
2014-Apr-12 14:23N 35°55' E 140°42'0 0.0
2014-Apr-12 13:29N 35°55' E 140°42'0 0.0
2014-Apr-12 12:32N 35°55' E 140°42'0 0.0
2014-Apr-12 11:26N 35°55' E 140°42'0 0.0
2014-Apr-12 10:32N 35°55' E 140°42'0 0.0
2014-Apr-12 09:29N 35°55' E 140°42'0 0.0
2014-Apr-12 08:20N 35°55' E 140°42'0 0.0
2014-Apr-12 07:17N 35°55' E 140°42'0 0.0
2014-Apr-12 06:26N 35°55' E 140°42'0 0.0
2014-Apr-12 05:29N 35°55' E 140°42'0 0.0
2014-Apr-12 04:26N 35°55' E 140°42'0 0.0
2014-Apr-12 03:32N 35°55' E 140°42'0 0.0
2014-Apr-12 02:23N 35°55' E 140°42'0 0.0
2014-Apr-12 01:32N 35°55' E 140°42'0 0.0
2014-Apr-12 00:32N 35°55' E 140°42'0 0.0
2014-Apr-11 23:20N 35°55' E 140°42'0 0.0
2014-Apr-11 22:29N 35°55' E 140°42'0 0.0
2014-Apr-11 21:26N 35°55' E 140°42'0 0.0
2014-Apr-11 20:29N 35°55' E 140°42'0 0.0
2014-Apr-11 19:32N 35°55' E 140°42'0 0.0
2014-Apr-11 18:29N 35°55' E 140°42'0 0.0
2014-Apr-11 17:20N 35°55' E 140°42'0 0.0
2014-Apr-11 16:29N 35°55' E 140°42'0 0.0
2014-Apr-11 15:32N 35°55' E 140°42'0 0.0
2014-Apr-11 14:29N 35°55' E 140°42'0 0.0
2014-Apr-11 13:32N 35°55' E 140°42'0 0.0
2014-Apr-11 12:32N 35°55' E 140°42'0 0.0
2014-Apr-11 11:32N 35°55' E 140°42'0 0.0
2014-Apr-11 10:23N 35°55' E 140°42'0 0.0
2014-Apr-11 09:32N 35°55' E 140°42'0 0.0
2014-Apr-11 08:29N 35°55' E 140°42'0 0.0
2014-Apr-11 07:32N 35°55' E 140°42'1 0.1
2014-Apr-11 01:33N 35°56' E 140°42'5 4.7
2014-Apr-11 00:33N 35°59' E 140°46'2 1.2
2014-Apr-10 22:27N 35°58' E 140°49'0 0.0
2014-Apr-10 21:33N 35°58' E 140°49'0 0.0
2014-Apr-10 20:24N 35°58' E 140°49'0 0.1
2014-Apr-10 19:33N 35°58' E 140°49'0 0.1
2014-Apr-10 18:33N 35°59' E 140°49'39 7.6
2014-Apr-10 13:23N 35°19' E 140°46'1211.9
2014-Apr-10 12:23N 35°10' E 140°38'2310.9
2014-Apr-10 10:15N 34°54' E 140°17'912.5
2014-Apr-10 09:32N 34°51' E 140°07'1612.8
2014-Apr-10 08:16N 34°45' E 139°48'912.9
2014-Apr-10 07:33N 34°42' E 139°38'8212.9
2014-Apr-10 01:14N 34°09' E 138°07'36311.1
2014-Apr-08 16:30N 34°02' E 130°49'5311.8
2014-Apr-08 12:03N 34°03' E 129°45'  

Dump ship's entire track history